Time;durP1;ratioP1;P1;durP2;ratioP2;P2;SDS_P1;SDS_P2;PMS_P1;PMS_P2;Temp;Humidity;BMP_temperature;BMP_pressure;BME280_temperature;BME280_humidity;BME280_pressure;Samples;Min_cycle;Max_cycle;Signal;HPM_P1;HPM_P2
2023/12/11 00:00:46;;;;;;;0.85;0.80;;;8.20;99.90;;;;;;5034756;28;20469;-73
2023/12/11 00:03:12;;;;;;;0.70;0.70;;;8.20;99.90;;;;;;5031804;28;20037;-73
2023/12/11 00:05:41;;;;;;;1.98;0.77;;;8.20;99.90;;;;;;5032480;28;20034;-74
2023/12/11 00:08:07;;;;;;;1.35;0.93;;;8.20;99.90;;;;;;5028623;28;20029;-73
2023/12/11 00:10:33;;;;;;;1.95;0.82;;;8.10;99.90;;;;;;5034683;28;20157;-73
2023/12/11 00:12:58;;;;;;;1.85;1.05;;;8.30;99.90;;;;;;5038115;28;20034;-73
2023/12/11 00:15:24;;;;;;;0.65;0.65;;;8.30;99.90;;;;;;5037501;28;20037;-73
2023/12/11 00:17:50;;;;;;;0.93;0.80;;;8.20;99.90;;;;;;5036611;28;20014;-74
2023/12/11 00:20:15;;;;;;;2.67;1.00;;;8.20;99.90;;;;;;5034497;28;20025;-71
2023/12/11 00:22:41;;;;;;;3.10;0.85;;;8.20;99.90;;;;;;5035550;28;20041;-72
2023/12/11 00:25:07;;;;;;;1.65;0.90;;;8.20;99.90;;;;;;5031074;28;20092;-76
2023/12/11 00:27:33;;;;;;;1.20;1.05;;;8.20;99.90;;;;;;5033818;28;20056;-72
2023/12/11 00:29:59;;;;;;;1.85;1.25;;;8.20;99.90;;;;;;5036759;28;20037;-72
2023/12/11 00:32:25;;;;;;;2.50;1.10;;;8.10;99.90;;;;;;5028571;28;20030;-73
2023/12/11 00:34:51;;;;;;;0.80;0.80;;;8.00;99.90;;;;;;5047556;28;20037;-75
2023/12/11 00:37:17;;;;;;;1.83;1.00;;;8.00;99.90;;;;;;5041370;28;20540;-76
2023/12/11 00:39:43;;;;;;;1.48;0.82;;;8.10;99.90;;;;;;5040292;28;20085;-75
2023/12/11 00:42:08;;;;;;;0.95;0.70;;;8.10;99.90;;;;;;5041142;28;20041;-75
2023/12/11 00:44:37;;;;;;;0.80;0.80;;;8.20;99.90;;;;;;5044493;28;20042;-76
2023/12/11 00:47:04;;;;;;;1.63;1.10;;;8.10;99.90;;;;;;5032004;28;20117;-74
2023/12/11 00:49:30;;;;;;;0.75;0.75;;;8.10;99.90;;;;;;5032772;28;20033;-75
2023/12/11 00:51:55;;;;;;;2.55;1.15;;;8.20;99.90;;;;;;5040362;28;20032;-74
2023/12/11 00:54:21;;;;;;;1.13;0.90;;;8.20;99.90;;;;;;5043408;28;20073;-75
2023/12/11 00:56:47;;;;;;;1.65;0.90;;;8.20;99.90;;;;;;5042351;28;20033;-77
2023/12/11 00:59:12;;;;;;;1.35;0.88;;;8.10;99.90;;;;;;5044248;28;20044;-75
2023/12/11 01:01:38;;;;;;;1.95;0.93;;;8.20;99.90;;;;;;5041310;28;20389;-75
2023/12/11 01:04:04;;;;;;;1.27;1.02;;;8.20;99.90;;;;;;5043598;28;20114;-76
2023/12/11 01:06:29;;;;;;;0.90;0.85;;;8.10;99.90;;;;;;5035320;28;20025;-75
2023/12/11 01:08:55;;;;;;;3.88;0.90;;;8.10;99.90;;;;;;5043855;28;20393;-75
2023/12/11 01:11:21;;;;;;;1.95;0.80;;;8.10;99.90;;;;;;5036459;28;20036;-75
2023/12/11 01:13:46;;;;;;;0.98;0.80;;;8.10;99.90;;;;;;5037522;28;20052;-75
2023/12/11 01:16:12;;;;;;;0.80;0.80;;;8.20;99.90;;;;;;5042769;28;20030;-74
2023/12/11 01:18:37;;;;;;;1.73;0.90;;;8.10;99.90;;;;;;5042922;28;20041;-75
2023/12/11 01:21:03;;;;;;;2.50;1.15;;;8.20;99.90;;;;;;5043341;28;20634;-75
2023/12/11 01:23:29;;;;;;;1.48;0.70;;;8.10;99.90;;;;;;5044882;28;20060;-76
2023/12/11 01:25:54;;;;;;;1.00;1.00;;;8.10;99.90;;;;;;5041205;28;20408;-76
2023/12/11 01:28:20;;;;;;;2.13;1.20;;;8.00;99.90;;;;;;5035023;28;20034;-76
2023/12/11 01:30:46;;;;;;;1.15;0.80;;;8.00;99.90;;;;;;5037026;28;20042;-75
2023/12/11 01:33:11;;;;;;;1.98;1.20;;;8.00;99.90;;;;;;5038826;28;20041;-74
2023/12/11 01:35:37;;;;;;;1.73;0.98;;;8.00;99.90;;;;;;5035812;28;20093;-74
2023/12/11 01:38:03;;;;;;;1.55;1.23;;;8.00;99.90;;;;;;5021345;28;20059;-74
2023/12/11 01:40:29;;;;;;;1.35;1.13;;;7.90;99.90;;;;;;5041063;28;20391;-74
2023/12/11 01:42:55;;;;;;;1.00;0.90;;;7.90;99.90;;;;;;5024846;28;20489;-74
2023/12/11 01:45:20;;;;;;;2.50;0.90;;;7.80;99.90;;;;;;5035918;28;20041;-74
2023/12/11 01:47:46;;;;;;;2.17;1.02;;;7.80;99.90;;;;;;5039404;28;20077;-74
2023/12/11 01:50:12;;;;;;;2.28;1.02;;;7.80;99.90;;;;;;5041730;28;20021;-75
2023/12/11 01:52:38;;;;;;;1.58;1.00;;;7.80;99.90;;;;;;5035447;28;20030;-73
2023/12/11 01:55:05;;;;;;;0.82;0.73;;;7.70;99.90;;;;;;5028417;28;20072;-75
2023/12/11 01:57:31;;;;;;;0.73;0.73;;;7.70;99.90;;;;;;5027978;28;20026;-75
2023/12/11 01:59:57;;;;;;;4.97;0.95;;;7.70;99.90;;;;;;5043850;28;20053;-74
2023/12/11 02:02:23;;;;;;;2.17;1.10;;;7.70;99.90;;;;;;5035753;28;20173;-74
2023/12/11 02:04:50;;;;;;;2.67;1.10;;;7.60;99.90;;;;;;5034840;28;20032;-74
2023/12/11 02:07:16;;;;;;;1.48;1.02;;;7.60;99.90;;;;;;5026593;28;20034;-73
2023/12/11 02:09:42;;;;;;;0.80;0.80;;;7.70;99.90;;;;;;5036971;28;20045;-74
2023/12/11 02:12:08;;;;;;;1.42;1.13;;;7.60;99.90;;;;;;5034034;28;20161;-74
2023/12/11 02:14:34;;;;;;;1.23;0.93;;;7.60;99.90;;;;;;5040241;28;20037;-74
2023/12/11 02:16:59;;;;;;;1.30;1.20;;;7.60;99.90;;;;;;5028733;28;20057;-74
2023/12/11 02:19:25;;;;;;;1.60;1.08;;;7.60;99.90;;;;;;5039278;28;20029;-75
2023/12/11 02:21:52;;;;;;;1.48;0.80;;;7.60;99.90;;;;;;5029716;28;20068;-74
2023/12/11 02:24:29;;;;;;;1.30;1.10;;;7.60;99.90;;;;;;5037576;28;20131;-73
2023/12/11 02:26:54;;;;;;;1.30;1.10;;;7.60;99.90;;;;;;5034407;28;20417;-74
2023/12/11 02:29:20;;;;;;;2.15;1.35;;;7.60;99.90;;;;;;5032197;28;20485;-74
2023/12/11 02:31:45;;;;;;;0.73;0.73;;;7.60;99.90;;;;;;5032908;28;20037;-75
2023/12/11 02:34:11;;;;;;;1.48;0.90;;;7.60;99.90;;;;;;5031495;28;20045;-74
2023/12/11 02:36:37;;;;;;;0.80;0.80;;;7.60;99.90;;;;;;5034848;28;20037;-74
2023/12/11 02:39:03;;;;;;;3.03;1.50;;;7.60;99.90;;;;;;5036288;28;20103;-74
2023/12/11 02:41:28;;;;;;;3.75;1.15;;;7.60;99.90;;;;;;5033611;28;20120;-74
2023/12/11 02:43:54;;;;;;;1.50;0.98;;;7.60;99.90;;;;;;5033800;28;20030;-76
2023/12/11 02:46:19;;;;;;;2.75;1.10;;;7.60;99.90;;;;;;5039515;28;20120;-75
2023/12/11 02:48:45;;;;;;;0.90;0.90;;;7.50;99.90;;;;;;5037899;28;20063;-76
2023/12/11 02:51:11;;;;;;;3.88;1.10;;;7.50;99.90;;;;;;5033743;28;20465;-76
2023/12/11 02:53:36;;;;;;;2.03;1.23;;;7.50;99.90;;;;;;5035610;28;20030;-76
2023/12/11 02:56:02;;;;;;;1.85;1.13;;;7.50;99.90;;;;;;5036097;28;20037;-75
2023/12/11 02:58:28;;;;;;;2.42;1.23;;;7.50;99.90;;;;;;5039840;28;20147;-75
2023/12/11 03:00:53;;;;;;;0.90;0.90;;;7.50;99.90;;;;;;5032837;28;20164;-75
2023/12/11 03:03:19;;;;;;;0.82;0.80;;;7.50;99.90;;;;;;5042699;28;20029;-76
2023/12/11 03:05:45;;;;;;;1.45;1.02;;;7.50;99.90;;;;;;5037539;28;20049;-75
2023/12/11 03:08:10;;;;;;;0.98;0.63;;;7.50;99.90;;;;;;5035918;28;20041;-75
2023/12/11 03:10:36;;;;;;;2.40;1.10;;;7.50;99.90;;;;;;5041887;28;20026;-75
2023/12/11 03:13:02;;;;;;;2.13;1.10;;;7.50;99.90;;;;;;5032819;28;20092;-76
2023/12/11 03:15:29;;;;;;;2.05;1.48;;;7.50;99.90;;;;;;5043408;28;20428;-76
2023/12/11 03:17:55;;;;;;;1.60;0.90;;;7.50;99.90;;;;;;5035736;28;20045;-75
2023/12/11 03:20:20;;;;;;;0.70;0.70;;;7.50;99.90;;;;;;5044130;28;20097;-75
2023/12/11 03:22:46;;;;;;;1.52;1.10;;;7.50;99.90;;;;;;5033900;28;20469;-76
2023/12/11 03:25:12;;;;;;;1.20;1.00;;;7.60;99.90;;;;;;5041760;28;20053;-76
2023/12/11 03:27:37;;;;;;;0.88;0.88;;;7.50;99.90;;;;;;5045586;28;20546;-75
2023/12/11 03:30:03;;;;;;;1.10;1.00;;;7.50;99.90;;;;;;5030305;28;20026;-75
2023/12/11 03:32:29;;;;;;;1.77;1.00;;;7.50;99.90;;;;;;5041812;28;20094;-75
2023/12/11 03:34:55;;;;;;;1.17;0.90;;;7.40;99.90;;;;;;5048863;28;20088;-76
2023/12/11 03:37:21;;;;;;;1.50;0.90;;;7.50;99.90;;;;;;5040493;28;20017;-75
2023/12/11 03:39:46;;;;;;;2.63;1.05;;;7.50;99.90;;;;;;5038407;28;20097;-76
2023/12/11 03:42:12;;;;;;;1.73;1.10;;;7.40;99.90;;;;;;5037919;28;20045;-76
2023/12/11 03:44:37;;;;;;;2.85;1.20;;;7.50;99.90;;;;;;5040140;28;20462;-77
2023/12/11 03:47:03;;;;;;;1.20;1.10;;;7.40;99.90;;;;;;5027167;28;20057;-77
2023/12/11 03:49:29;;;;;;;1.52;1.20;;;7.40;99.90;;;;;;5022746;28;20040;-76
2023/12/11 03:51:54;;;;;;;1.25;1.15;;;7.40;99.90;;;;;;5045907;28;20055;-76
2023/12/11 03:54:21;;;;;;;1.65;0.90;;;7.40;99.90;;;;;;5036670;28;20132;-74
2023/12/11 03:56:46;;;;;;;1.40;0.98;;;7.40;99.90;;;;;;5031837;28;20070;-73
2023/12/11 03:59:13;;;;;;;1.25;1.00;;;7.40;99.90;;;;;;5038960;28;20091;-74
2023/12/11 04:01:39;;;;;;;1.60;1.50;;;7.40;99.90;;;;;;5037886;28;20046;-74
2023/12/11 04:04:05;;;;;;;1.58;1.13;;;7.50;99.90;;;;;;5040591;28;20068;-75
2023/12/11 04:06:31;;;;;;;2.25;1.20;;;7.50;99.90;;;;;;5041359;28;20402;-75
2023/12/11 04:08:56;;;;;;;0.90;0.90;;;7.50;99.90;;;;;;5040331;28;20044;-75
2023/12/11 04:11:22;;;;;;;1.00;1.00;;;7.50;99.90;;;;;;5043125;28;20037;-75
2023/12/11 04:13:48;;;;;;;0.60;0.60;;;7.50;99.90;;;;;;5042511;28;20041;-75
2023/12/11 04:16:13;;;;;;;1.00;1.00;;;7.50;99.90;;;;;;5042783;28;20353;-76
2023/12/11 04:18:39;;;;;;;0.90;0.82;;;7.50;99.90;;;;;;5034887;28;20014;-75
2023/12/11 04:21:06;;;;;;;0.70;0.70;;;7.50;99.90;;;;;;5025775;28;20025;-76
2023/12/11 04:23:32;;;;;;;1.00;0.95;;;7.50;99.90;;;;;;5033680;28;20056;-75
2023/12/11 04:25:59;;;;;;;1.42;0.90;;;7.40;99.90;;;;;;5038723;28;20033;-75
2023/12/11 04:28:25;;;;;;;1.70;1.00;;;7.50;99.90;;;;;;5038891;28;20032;-75
2023/12/11 04:30:51;;;;;;;1.83;0.80;;;7.50;99.90;;;;;;5039937;28;20103;-75
2023/12/11 04:33:17;;;;;;;1.10;0.80;;;7.50;99.90;;;;;;5036783;28;20396;-76
2023/12/11 04:35:44;;;;;;;0.82;0.82;;;7.60;99.90;;;;;;5042517;28;20030;-76
2023/12/11 04:38:09;;;;;;;1.02;0.90;;;7.60;99.90;;;;;;5042188;28;20041;-75
2023/12/11 04:40:35;;;;;;;0.88;0.88;;;7.60;99.90;;;;;;5043092;28;20022;-76
2023/12/11 04:43:01;;;;;;;1.23;1.13;;;7.70;99.90;;;;;;5042146;28;20029;-75
2023/12/11 04:45:27;;;;;;;1.38;1.08;;;7.70;99.90;;;;;;5044387;28;20454;-75
2023/12/11 04:47:52;;;;;;;1.20;1.08;;;7.70;99.90;;;;;;5035099;28;20041;-75
2023/12/11 04:50:18;;;;;;;2.35;1.17;;;7.80;99.90;;;;;;5020082;28;20021;-75
2023/12/11 04:52:44;;;;;;;1.95;1.55;;;7.80;99.90;;;;;;5041804;28;20052;-75
2023/12/11 04:55:09;;;;;;;1.35;1.20;;;7.80;99.90;;;;;;5036860;28;20100;-75
2023/12/11 04:57:35;;;;;;;1.52;1.42;;;7.80;99.90;;;;;;5037221;28;20159;-76
2023/12/11 05:00:00;;;;;;;3.72;1.55;;;7.80;99.90;;;;;;5032365;28;20048;-75
2023/12/11 05:02:26;;;;;;;3.65;1.50;;;7.90;99.90;;;;;;5038984;28;20048;-75
2023/12/11 05:04:52;;;;;;;2.45;1.30;;;7.90;99.90;;;;;;5033362;28;20030;-73
2023/12/11 05:07:17;;;;;;;2.10;1.50;;;7.90;99.90;;;;;;5034001;28;20021;-74
2023/12/11 05:09:43;;;;;;;3.05;1.60;;;7.80;99.90;;;;;;5035018;28;20026;-74
2023/12/11 05:12:08;;;;;;;3.10;1.45;;;7.90;99.90;;;;;;5033676;28;20037;-73
2023/12/11 05:14:34;;;;;;;1.23;1.23;;;7.90;99.90;;;;;;5031987;28;20350;-73
2023/12/11 05:17:00;;;;;;;2.35;1.02;;;7.80;99.90;;;;;;5036100;28;20037;-73
2023/12/11 05:19:25;;;;;;;1.48;1.23;;;7.80;99.90;;;;;;5037825;28;20076;-74
2023/12/11 05:21:51;;;;;;;1.60;1.30;;;7.80;99.90;;;;;;5032955;28;20059;-74
2023/12/11 05:24:17;;;;;;;1.38;1.27;;;7.80;99.90;;;;;;5029455;28;20098;-73
2023/12/11 05:26:42;;;;;;;1.00;1.00;;;7.80;99.90;;;;;;5033020;28;20093;-72
2023/12/11 05:29:08;;;;;;;1.02;1.02;;;7.80;99.90;;;;;;5031990;28;20034;-72
2023/12/11 05:31:34;;;;;;;1.00;1.00;;;7.70;99.90;;;;;;5037282;28;20050;-73
2023/12/11 05:33:59;;;;;;;2.58;1.20;;;7.70;99.90;;;;;;5037486;28;20050;-73
2023/12/11 05:36:25;;;;;;;3.35;1.98;;;7.70;99.90;;;;;;5034761;28;20037;-73
2023/12/11 05:38:51;;;;;;;2.33;1.70;;;7.70;99.90;;;;;;5016818;28;20558;-72
2023/12/11 05:41:18;;;;;;;2.97;1.67;;;7.60;99.90;;;;;;5036863;28;20037;-73
2023/12/11 05:43:43;;;;;;;4.28;1.65;;;7.60;99.90;;;;;;5029561;28;20029;-72
2023/12/11 05:46:12;;;;;;;3.10;2.10;;;7.50;99.90;;;;;;5028313;28;20024;-71
2023/12/11 05:48:38;;;;;;;;;;;7.50;99.90;;;;;;5026552;28;20506;-74
2023/12/11 05:51:04;;;;;;;3.00;1.40;;;7.50;99.90;;;;;;5031557;28;19909;-74
2023/12/11 05:53:31;;;;;;;1.30;1.20;;;7.60;99.90;;;;;;5028608;28;20053;-74
2023/12/11 05:55:56;;;;;;;2.53;2.20;;;7.60;99.90;;;;;;5027443;28;20474;-74
2023/12/11 05:58:23;;;;;;;1.67;1.35;;;7.60;99.90;;;;;;5024675;28;20040;-72
2023/12/11 06:00:48;;;;;;;2.13;1.50;;;7.70;99.90;;;;;;5024066;28;20049;-73
2023/12/11 06:03:14;;;;;;;1.45;1.30;;;7.70;99.90;;;;;;5025978;28;20069;-73
2023/12/11 06:05:40;;;;;;;0.98;0.98;;;7.70;99.90;;;;;;5036011;28;20040;-72
2023/12/11 06:08:06;;;;;;;1.00;1.00;;;7.70;99.90;;;;;;5017995;28;20037;-72
2023/12/11 06:10:32;;;;;;;1.30;1.20;;;7.70;99.90;;;;;;5033803;28;20044;-73
2023/12/11 06:12:58;;;;;;;1.58;1.33;;;7.60;99.90;;;;;;5031661;28;20084;-77
2023/12/11 06:15:24;;;;;;;2.97;2.50;;;7.60;99.90;;;;;;5024671;28;20045;-75
2023/12/11 06:17:49;;;;;;;1.80;1.45;;;7.50;99.90;;;;;;5040124;28;20033;-75
2023/12/11 06:20:21;;;;;;;1.80;1.70;;;7.50;99.90;;;;;;5040454;28;20103;-76
2023/12/11 06:22:47;;;;;;;1.43;1.33;;;7.40;99.90;;;;;;5020851;28;20026;-75
2023/12/11 06:25:13;;;;;;;3.63;1.55;;;7.40;99.90;;;;;;5033701;28;20050;-74
2023/12/11 06:27:39;;;;;;;2.03;1.65;;;7.30;99.90;;;;;;5038757;28;20033;-74
2023/12/11 06:30:07;;;;;;;2.58;1.67;;;7.30;99.90;;;;;;5039186;28;20067;-74
2023/12/11 06:32:32;;;;;;;2.85;1.88;;;7.40;99.90;;;;;;5038202;28;20040;-75
2023/12/11 06:34:58;;;;;;;1.70;1.60;;;7.30;99.90;;;;;;5036661;28;20029;-74
2023/12/11 06:37:23;;;;;;;3.75;2.70;;;7.30;99.90;;;;;;5042268;28;20057;-74
2023/12/11 06:39:49;;;;;;;4.47;3.08;;;7.20;99.90;;;;;;5042155;28;20557;-74
2023/12/11 06:42:15;;;;;;;3.63;2.70;;;7.20;99.90;;;;;;5024439;28;20168;-74
2023/12/11 06:44:41;;;;;;;8.15;4.97;;;7.20;99.90;;;;;;5035385;28;20033;-75
2023/12/11 06:47:06;;;;;;;8.85;5.53;;;7.20;99.90;;;;;;5018666;28;20057;-74
2023/12/11 06:49:32;;;;;;;42.60;23.80;;;7.10;99.90;;;;;;5040450;28;20485;-76
2023/12/11 06:51:58;;;;;;;34.78;18.05;;;7.10;99.90;;;;;;5035569;28;20478;-75
2023/12/11 06:54:23;;;;;;;13.38;8.73;;;7.10;99.90;;;;;;5038175;28;20033;-75
2023/12/11 06:56:49;;;;;;;10.95;6.95;;;7.10;99.90;;;;;;5044363;28;20036;-77
2023/12/11 06:59:14;;;;;;;8.52;5.28;;;7.00;99.90;;;;;;5044059;28;20025;-75
2023/12/11 07:01:40;;;;;;;9.50;4.97;;;7.00;99.90;;;;;;5039908;28;20056;-75
2023/12/11 07:04:07;;;;;;;9.98;5.80;;;7.10;99.90;;;;;;5035892;28;20680;-76
2023/12/11 07:06:32;;;;;;;6.95;4.53;;;7.00;99.90;;;;;;5046591;28;20040;-76
2023/12/11 07:08:58;;;;;;;6.07;2.60;;;7.00;99.90;;;;;;5038181;28;20372;-76
2023/12/11 07:11:24;;;;;;;6.30;2.53;;;7.00;99.90;;;;;;5046068;28;20437;-75
2023/12/11 07:13:50;;;;;;;2.03;1.90;;;7.00;99.90;;;;;;5038594;28;20038;-75
2023/12/11 07:16:15;;;;;;;2.60;1.77;;;6.90;99.90;;;;;;5038194;28;20112;-75
2023/12/11 07:18:42;;;;;;;5.00;1.58;;;6.70;99.90;;;;;;5037795;28;20071;-77
2023/12/11 07:21:09;;;;;;;1.58;1.48;;;6.70;99.90;;;;;;5017366;28;20040;-74
2023/12/11 07:23:35;;;;;;;1.40;1.30;;;6.70;99.90;;;;;;5022493;28;20053;-74
2023/12/11 07:26:00;;;;;;;1.50;1.40;;;6.70;99.90;;;;;;5033394;28;20034;-75
2023/12/11 07:28:26;;;;;;;1.95;1.42;;;6.70;99.90;;;;;;5027721;28;20026;-73
2023/12/11 07:30:52;;;;;;;1.40;1.30;;;6.70;99.90;;;;;;5042016;28;20389;-74
2023/12/11 07:33:18;;;;;;;1.20;1.20;;;6.70;99.90;;;;;;5030710;28;20152;-74
2023/12/11 07:35:44;;;;;;;1.45;1.35;;;6.60;99.90;;;;;;5032086;28;20037;-74
2023/12/11 07:38:09;;;;;;;1.65;1.50;;;6.70;99.90;;;;;;5028477;28;20101;-74
2023/12/11 07:40:35;;;;;;;1.80;1.60;;;6.70;99.90;;;;;;5037811;28;20045;-74
2023/12/11 07:43:01;;;;;;;2.08;1.45;;;6.60;99.90;;;;;;5023597;28;20025;-74
2023/12/11 07:45:26;;;;;;;1.92;1.40;;;6.60;99.90;;;;;;5037716;28;20037;-74
2023/12/11 07:47:52;;;;;;;1.48;1.33;;;6.60;99.90;;;;;;5014274;28;20028;-74
2023/12/11 07:50:17;;;;;;;3.58;1.40;;;6.60;99.90;;;;;;5035460;28;20076;-74
2023/12/11 07:52:43;;;;;;;1.33;1.23;;;6.70;99.90;;;;;;5033516;28;20059;-73
2023/12/11 07:55:09;;;;;;;1.77;1.30;;;6.70;99.90;;;;;;5034591;28;20112;-73
2023/12/11 07:57:34;;;;;;;1.30;1.20;;;6.90;99.90;;;;;;5034794;28;20030;-74
2023/12/11 08:00:00;;;;;;;2.63;1.40;;;7.00;99.90;;;;;;5031097;28;20049;-74
2023/12/11 08:02:26;;;;;;;2.85;1.45;;;7.10;99.90;;;;;;5035263;28;20538;-74
2023/12/11 08:04:51;;;;;;;2.03;1.65;;;7.20;99.90;;;;;;5031822;28;20060;-74
2023/12/11 08:07:18;;;;;;;2.22;1.50;;;7.30;99.90;;;;;;5029950;28;20033;-74
2023/12/11 08:09:44;;;;;;;1.58;1.48;;;7.40;99.90;;;;;;5038073;28;20021;-73
2023/12/11 08:12:10;;;;;;;1.70;1.60;;;7.50;99.90;;;;;;5029563;28;20073;-73
2023/12/11 08:14:37;;;;;;;1.63;1.40;;;7.50;99.90;;;;;;5036278;28;20033;-74
2023/12/11 08:17:06;;;;;;;2.05;1.90;;;7.50;99.90;;;;;;5031241;28;20030;-74
2023/12/11 08:19:35;;;;;;;1.73;1.63;;;7.60;99.90;;;;;;5031919;28;20075;-75
2023/12/11 08:22:01;;;;;;;1.88;1.73;;;7.60;99.90;;;;;;5029098;28;20119;-74
2023/12/11 08:24:30;;;;;;;2.42;1.50;;;7.70;99.90;;;;;;5034982;28;20037;-74
2023/12/11 08:26:56;;;;;;;2.15;1.60;;;7.70;99.90;;;;;;5029177;28;20045;-74
2023/12/11 08:29:22;;;;;;;1.70;1.60;;;7.80;99.90;;;;;;5035051;28;20076;-74
2023/12/11 08:31:48;;;;;;;1.95;1.80;;;7.90;99.90;;;;;;5038092;28;20120;-74
2023/12/11 08:34:13;;;;;;;1.73;1.63;;;7.90;99.90;;;;;;5036195;28;20029;-73
2023/12/11 08:36:39;;;;;;;1.23;1.13;;;8.00;99.90;;;;;;5041518;28;20859;-73
2023/12/11 08:39:06;;;;;;;2.58;1.60;;;7.90;99.90;;;;;;5045338;28;20028;-73
2023/12/11 08:41:31;;;;;;;1.42;1.35;;;7.90;99.90;;;;;;5044334;28;20033;-74
2023/12/11 08:43:57;;;;;;;1.50;1.40;;;7.90;99.90;;;;;;5037031;28;20036;-74
2023/12/11 08:46:22;;;;;;;1.33;1.23;;;7.80;99.90;;;;;;5037061;28;20038;-74
2023/12/11 08:48:49;;;;;;;5.47;1.52;;;7.80;99.90;;;;;;5036769;28;20037;-74
2023/12/11 08:51:20;;;;;;;1.90;1.65;;;7.80;99.90;;;;;;5040928;28;20064;-74
2023/12/11 08:53:46;;;;;;;2.22;1.55;;;7.90;99.90;;;;;;5044312;28;20538;-74
2023/12/11 08:56:14;;;;;;;1.45;1.30;;;7.80;99.90;;;;;;5025683;28;20029;-74
2023/12/11 08:58:43;;;;;;;1.60;1.40;;;7.80;99.90;;;;;;5037137;28;20033;-73
2023/12/11 09:01:09;;;;;;;1.63;1.48;;;7.90;99.90;;;;;;5038029;28;20049;-74
2023/12/11 09:03:34;;;;;;;1.77;1.67;;;7.90;99.90;;;;;;5033656;28;20691;-74
2023/12/11 09:06:00;;;;;;;1.25;1.15;;;7.90;99.90;;;;;;5033701;28;20037;-74
2023/12/11 09:08:26;;;;;;;2.17;1.38;;;7.80;99.90;;;;;;5039333;28;20066;-74
2023/12/11 09:10:51;;;;;;;2.00;1.52;;;7.90;99.90;;;;;;5034164;28;20413;-74
2023/12/11 09:13:17;;;;;;;3.17;1.48;;;7.80;99.90;;;;;;5024636;28;20036;-76
2023/12/11 09:15:43;;;;;;;1.65;1.55;;;7.80;99.90;;;;;;5036538;28;20389;-73
2023/12/11 09:18:08;;;;;;;2.83;1.60;;;7.90;99.90;;;;;;5035205;28;20082;-74
2023/12/11 09:20:34;;;;;;;1.92;1.55;;;7.90;99.90;;;;;;5041459;28;20087;-74
2023/12/11 09:23:00;;;;;;;1.90;1.80;;;8.00;99.90;;;;;;5033818;28;20037;-74
2023/12/11 09:25:25;;;;;;;2.42;1.80;;;8.00;99.90;;;;;;5040768;28;20057;-73
2023/12/11 09:27:51;;;;;;;1.92;1.63;;;8.10;99.90;;;;;;5034359;28;20382;-74
2023/12/11 09:30:17;;;;;;;1.83;1.42;;;8.10;99.90;;;;;;5040717;28;20650;-74
2023/12/11 09:32:42;;;;;;;1.70;1.60;;;8.20;99.90;;;;;;5031425;28;20052;-74
2023/12/11 09:35:10;;;;;;;1.58;1.48;;;8.20;99.90;;;;;;5032435;28;20033;-74
2023/12/11 09:37:36;;;;;;;1.50;1.40;;;8.30;99.90;;;;;;5035349;28;20053;-74
2023/12/11 09:40:02;;;;;;;1.73;1.58;;;8.40;99.90;;;;;;5037538;28;20492;-74
2023/12/11 09:42:29;;;;;;;3.08;1.75;;;8.30;99.90;;;;;;5031580;28;20034;-74
2023/12/11 09:44:55;;;;;;;2.55;1.70;;;8.30;99.90;;;;;;5029135;28;20480;-73
2023/12/11 09:47:31;;;;;;;2.45;1.80;;;8.30;99.90;;;;;;5028195;28;20041;-74
2023/12/11 09:49:57;;;;;;;1.80;1.70;;;8.20;99.90;;;;;;5029910;28;20034;-73
2023/12/11 09:52:23;;;;;;;1.55;1.45;;;8.20;99.90;;;;;;5030227;28;20048;-72
2023/12/11 09:54:48;;;;;;;2.55;1.80;;;8.20;99.90;;;;;;5045447;28;20037;-76
2023/12/11 09:57:15;;;;;;;2.22;1.80;;;8.30;99.90;;;;;;5015784;28;20057;-75
2023/12/11 09:59:42;;;;;;;1.90;1.80;;;8.30;99.90;;;;;;5044713;28;20036;-75
2023/12/11 10:02:15;;;;;;;2.50;2.30;;;8.30;99.90;;;;;;5040633;28;20040;-74
2023/12/11 10:05:00;;;;;;;2.85;1.83;;;8.30;99.90;;;;;;5047783;28;20041;-75
2023/12/11 10:07:25;;;;;;;1.85;1.75;;;8.30;99.90;;;;;;5040019;28;20020;-75
2023/12/11 10:09:51;;;;;;;4.15;1.80;;;8.30;99.90;;;;;;5040724;28;20018;-75
2023/12/11 10:12:17;;;;;;;2.20;2.00;;;8.30;99.90;;;;;;5045189;28;20026;-75
2023/12/11 10:14:43;;;;;;;1.85;1.75;;;8.30;99.90;;;;;;5046776;28;20079;-75
2023/12/11 10:17:17;;;;;;;3.17;1.58;;;8.30;99.90;;;;;;5047127;28;20067;-75
2023/12/11 10:19:43;;;;;;;1.75;1.50;;;8.40;99.90;;;;;;5049090;28;20033;-76
2023/12/11 10:22:26;;;;;;;1.60;1.50;;;8.40;99.90;;;;;;5029787;28;20056;-75
2023/12/11 10:24:51;;;;;;;1.58;1.38;;;8.50;99.90;;;;;;5041454;28;20057;-75
2023/12/11 10:27:22;;;;;;;2.17;1.60;;;8.60;99.90;;;;;;5046484;28;20049;-75
2023/12/11 10:29:47;;;;;;;2.33;1.90;;;8.60;99.90;;;;;;5052851;28;20571;-75
2023/12/11 10:32:13;;;;;;;1.80;1.40;;;8.60;99.90;;;;;;5044461;28;20038;-76
2023/12/11 10:34:42;;;;;;;1.80;1.70;;;8.70;99.90;;;;;;5041423;28;20026;-75
2023/12/11 10:37:10;;;;;;;1.88;1.73;;;8.80;99.90;;;;;;5047344;28;20173;-75
2023/12/11 10:39:35;;;;;;;1.70;1.60;;;8.90;99.90;;;;;;5043440;28;20033;-74
2023/12/11 10:42:16;;;;;;;0.93;0.93;;;9.00;99.90;;;;;;5044408;28;20455;-76
2023/12/11 10:44:43;;;;;;;1.83;0.90;;;9.10;99.90;;;;;;5048499;28;20044;-76
2023/12/11 10:47:09;;;;;;;1.77;1.15;;;9.10;99.90;;;;;;5041589;28;20037;-76
2023/12/11 10:49:35;;;;;;;1.00;0.85;;;9.20;99.90;;;;;;5043527;28;20042;-75
2023/12/11 10:52:02;;;;;;;1.50;0.70;;;9.20;99.90;;;;;;5059397;28;20037;-76
2023/12/11 10:54:32;;;;;;;1.95;0.98;;;9.30;99.90;;;;;;5043638;28;20025;-78
2023/12/11 10:57:01;;;;;;;0.70;0.70;;;9.30;99.90;;;;;;5043294;28;20046;-77
2023/12/11 10:59:28;;;;;;;;;;;9.30;99.90;;;;;;5047331;28;20029;-77
2023/12/11 11:01:55;;;;;;;0.60;0.60;;;9.40;99.90;;;;;;5038500;28;19913;-79
2023/12/11 11:04:22;;;;;;;0.60;0.60;;;9.50;99.90;;;;;;5046095;28;20041;-78
2023/12/11 11:07:00;;;;;;;0.85;0.85;;;9.60;99.90;;;;;;5040880;28;20034;-77
2023/12/11 11:10:04;;;;;;;0.77;0.77;;;9.60;99.90;;;;;;5037662;28;20064;-77
2023/12/11 11:12:50;;;;;;;0.60;0.60;;;9.70;99.90;;;;;;5043328;28;20090;-76
2023/12/11 11:15:23;;;;;;;0.73;0.70;;;9.70;99.90;;;;;;5040578;28;20093;-77
2023/12/11 11:18:00;;;;;;;0.98;0.75;;;9.80;99.90;;;;;;5049469;28;20037;-77
2023/12/11 11:20:39;;;;;;;1.10;0.80;;;9.80;99.90;;;;;;5044649;28;20089;-77
2023/12/11 11:23:26;;;;;;;0.82;0.82;;;9.80;99.90;;;;;;5037538;28;20045;-77
2023/12/11 11:25:52;;;;;;;1.85;0.80;;;9.80;99.90;;;;;;5015559;28;20415;-77
2023/12/11 11:28:37;;;;;;;0.70;0.70;;;9.90;99.90;;;;;;5018584;28;20147;-76
2023/12/11 11:31:04;;;;;;;0.70;0.70;;;9.90;99.90;;;;;;5018717;28;20064;-77
2023/12/11 11:33:47;;;;;;;0.93;0.93;;;9.90;99.90;;;;;;5015481;28;20052;-77
2023/12/11 11:36:17;;;;;;;0.93;0.93;;;10.00;99.90;;;;;;5015618;28;20045;-77
2023/12/11 11:38:56;;;;;;;0.90;0.90;;;10.00;99.90;;;;;;5025479;28;20034;-78
2023/12/11 11:41:32;;;;;;;0.90;0.90;;;10.00;99.90;;;;;;5010018;28;20037;-77
2023/12/11 11:44:06;;;;;;;0.93;0.93;;;10.00;99.90;;;;;;5019125;28;20072;-77
2023/12/11 11:46:51;;;;;;;1.13;1.02;;;10.00;99.90;;;;;;5017018;28;20069;-78
2023/12/11 11:49:27;;;;;;;0.90;0.88;;;10.00;99.90;;;;;;5015809;28;20034;-78
2023/12/11 11:51:53;;;;;;;1.00;1.00;;;10.00;99.90;;;;;;5014784;28;20026;-78
2023/12/11 11:54:26;;;;;;;0.68;0.68;;;9.90;99.90;;;;;;5024043;28;20029;-77
2023/12/11 11:56:52;;;;;;;0.80;0.77;;;9.90;99.90;;;;;;5019089;28;20026;-77
2023/12/11 11:59:20;;;;;;;1.00;1.00;;;9.80;99.90;;;;;;5015128;28;20122;-78
2023/12/11 12:01:49;;;;;;;2.35;1.20;;;9.80;99.90;;;;;;5013990;28;20042;-77
2023/12/11 12:04:34;;;;;;;1.48;0.95;;;9.80;99.90;;;;;;5018349;28;20042;-77
2023/12/11 12:07:06;;;;;;;0.80;0.80;;;9.80;99.90;;;;;;5012472;28;20074;-75
2023/12/11 12:09:33;;;;;;;1.00;0.80;;;9.80;99.90;;;;;;5020654;28;20030;-77
2023/12/11 12:12:00;;;;;;;0.65;0.65;;;9.90;99.90;;;;;;5013415;28;20445;-76
2023/12/11 12:14:26;;;;;;;0.80;0.80;;;10.00;99.90;;;;;;5023051;28;20152;-77
2023/12/11 12:16:52;;;;;;;1.10;1.00;;;9.90;99.90;;;;;;5010270;28;20050;-77
2023/12/11 12:19:39;;;;;;;4.40;1.00;;;9.90;99.90;;;;;;5016387;28;20032;-79
2023/12/11 12:22:05;;;;;;;0.75;0.75;;;9.90;99.90;;;;;;5016854;28;20033;-77
2023/12/11 12:24:31;;;;;;;0.80;0.80;;;9.90;99.90;;;;;;5034324;28;20050;-78
2023/12/11 12:26:59;;;;;;;0.90;0.90;;;9.90;99.90;;;;;;5042092;28;20083;-77
2023/12/11 12:29:25;;;;;;;;;;;9.90;99.90;;;;;;5048741;28;20045;-78
2023/12/11 12:31:51;;;;;;;0.70;0.70;;;9.90;99.90;;;;;;5037193;28;20462;-78
2023/12/11 12:34:17;;;;;;;1.00;0.68;;;9.90;99.90;;;;;;5044429;28;20046;-78
2023/12/11 12:36:44;;;;;;;0.90;0.90;;;9.90;99.90;;;;;;5052501;28;20100;-78
2023/12/11 12:39:13;;;;;;;0.90;0.80;;;9.90;99.90;;;;;;5045717;28;20029;-77
2023/12/11 12:41:39;;;;;;;0.80;0.80;;;9.90;99.90;;;;;;5041533;28;20029;-78
2023/12/11 12:44:05;;;;;;;1.23;0.80;;;9.90;99.90;;;;;;5043554;28;20051;-77
2023/12/11 12:46:41;;;;;;;0.68;0.68;;;9.90;99.90;;;;;;5042518;28;20034;-76
2023/12/11 12:49:17;;;;;;;1.17;0.80;;;9.90;99.90;;;;;;5043142;28;20033;-77
2023/12/11 12:51:54;;;;;;;0.70;0.70;;;9.90;99.90;;;;;;5037634;28;20076;-77
2023/12/11 12:54:20;;;;;;;0.50;0.50;;;9.90;99.90;;;;;;5030208;28;20029;-79
2023/12/11 12:56:55;;;;;;;0.55;0.55;;;9.90;99.90;;;;;;5046471;28;20034;-78